Time;durP1;ratioP1;P1;durP2;ratioP2;P2;SDS_P1;SDS_P2;PMS_P1;PMS_P2;Temp;Humidity;BMP_temperature;BMP_pressure;BME280_temperature;BME280_humidity;BME280_pressure;Samples;Min_cycle;Max_cycle;Signal;HPM_P1;HPM_P2
2022/08/07 00:01:10;;;;;;;1.17;1.10;;;15.10;98.90;;;;;;484523;245;28890;-68
2022/08/07 00:03:12;;;;;;;1.07;1.07;;;15.10;98.90;;;;;;485228;245;28628;-68
2022/08/07 00:05:13;;;;;;;1.10;1.10;;;15.00;99.00;;;;;;484520;245;28971;-67
2022/08/07 00:07:14;;;;;;;1.67;1.40;;;15.00;99.10;;;;;;485113;245;29475;-70
2022/08/07 00:09:15;;;;;;;1.30;1.20;;;14.90;99.20;;;;;;484536;245;28854;-67
2022/08/07 00:11:17;;;;;;;1.20;1.20;;;14.90;99.30;;;;;;485192;245;29496;-67
2022/08/07 00:13:18;;;;;;;1.10;1.10;;;14.90;99.40;;;;;;484508;245;29240;-67
2022/08/07 00:15:19;;;;;;;2.20;1.20;;;14.90;99.50;;;;;;485215;245;28836;-67
2022/08/07 00:17:20;;;;;;;1.53;1.30;;;14.90;99.60;;;;;;484469;245;28874;-71
2022/08/07 00:19:22;;;;;;;1.47;1.30;;;14.90;99.70;;;;;;485200;245;28977;-68
2022/08/07 00:21:23;;;;;;;1.63;1.50;;;14.90;99.70;;;;;;484535;245;28915;-68
2022/08/07 00:23:24;;;;;;;1.20;1.20;;;14.90;99.70;;;;;;485197;245;28447;-67
2022/08/07 00:25:25;;;;;;;1.37;1.27;;;14.90;99.70;;;;;;484528;245;28941;-67
2022/08/07 00:27:27;;;;;;;1.33;1.33;;;14.90;99.80;;;;;;485086;245;28995;-69
2022/08/07 00:29:28;;;;;;;1.90;1.20;;;14.90;99.90;;;;;;484526;245;28840;-67
2022/08/07 00:31:29;;;;;;;1.60;1.33;;;14.90;99.90;;;;;;485194;245;29401;-69
2022/08/07 00:33:31;;;;;;;1.20;1.20;;;14.90;99.90;;;;;;484502;245;30211;-67
2022/08/07 00:35:32;;;;;;;1.30;1.20;;;14.90;99.90;;;;;;485166;245;29036;-67
2022/08/07 00:37:33;;;;;;;1.27;1.20;;;14.90;99.90;;;;;;484466;245;29146;-69
2022/08/07 00:39:34;;;;;;;1.30;1.20;;;14.90;99.90;;;;;;485214;245;28835;-68
2022/08/07 00:41:36;;;;;;;1.20;1.20;;;14.90;99.90;;;;;;484491;245;28607;-68
2022/08/07 00:43:37;;;;;;;1.30;1.27;;;14.80;99.90;;;;;;485206;245;28576;-67
2022/08/07 00:45:39;;;;;;;1.23;1.13;;;14.90;99.90;;;;;;484527;245;28864;-68
2022/08/07 00:47:39;;;;;;;5.27;1.20;;;14.90;99.90;;;;;;485153;245;28569;-69
2022/08/07 00:49:41;;;;;;;1.87;1.33;;;14.80;99.90;;;;;;484518;245;28440;-68
2022/08/07 00:51:42;;;;;;;1.30;1.30;;;14.80;99.90;;;;;;485229;245;28453;-69
2022/08/07 00:53:43;;;;;;;1.27;1.17;;;14.70;99.90;;;;;;484487;245;29377;-67
2022/08/07 00:55:44;;;;;;;1.73;1.30;;;14.70;99.90;;;;;;485187;245;28978;-67
2022/08/07 00:57:46;;;;;;;1.20;1.20;;;14.70;99.90;;;;;;484471;245;29379;-70
2022/08/07 00:59:47;;;;;;;1.17;1.17;;;14.80;99.90;;;;;;485231;245;28896;-68
2022/08/07 01:01:49;;;;;;;1.40;1.30;;;14.70;99.90;;;;;;484520;245;29116;-68
2022/08/07 01:03:50;;;;;;;1.20;1.20;;;14.70;99.90;;;;;;485178;245;28627;-67
2022/08/07 01:05:51;;;;;;;1.77;1.30;;;14.60;99.90;;;;;;484514;245;28613;-68
2022/08/07 01:07:52;;;;;;;1.57;1.47;;;14.60;99.90;;;;;;485156;245;28622;-71
2022/08/07 01:09:53;;;;;;;1.33;1.23;;;14.60;99.90;;;;;;484503;245;28564;-68
2022/08/07 01:11:54;;;;;;;1.37;1.20;;;14.60;99.90;;;;;;485221;245;28600;-68
2022/08/07 01:13:56;;;;;;;1.07;1.07;;;14.60;99.90;;;;;;484528;245;28222;-68
2022/08/07 01:15:57;;;;;;;1.27;1.20;;;14.50;99.90;;;;;;485263;245;28544;-68
2022/08/07 01:17:58;;;;;;;1.10;1.00;;;14.50;99.90;;;;;;484491;245;28576;-68
2022/08/07 01:19:59;;;;;;;1.40;1.30;;;14.50;99.90;;;;;;485237;245;28551;-67
2022/08/07 01:22:01;;;;;;;1.87;1.33;;;14.50;99.90;;;;;;484512;245;29358;-68
2022/08/07 01:24:02;;;;;;;1.40;1.30;;;14.50;99.90;;;;;;485259;245;29121;-68
2022/08/07 01:26:03;;;;;;;1.47;1.20;;;14.40;99.90;;;;;;484489;245;28978;-71
2022/08/07 01:28:04;;;;;;;1.30;1.10;;;14.40;99.90;;;;;;489431;243;28218;-69
2022/08/07 01:30:06;;;;;;;1.83;1.60;;;14.40;99.90;;;;;;489495;242;28366;-67
2022/08/07 01:32:07;;;;;;;1.10;1.10;;;14.40;99.90;;;;;;489475;242;28325;-68
2022/08/07 01:34:08;;;;;;;1.30;1.20;;;14.30;99.90;;;;;;489501;243;28415;-72
2022/08/07 01:36:10;;;;;;;2.23;1.40;;;14.30;99.90;;;;;;485095;245;28567;-67
2022/08/07 01:38:11;;;;;;;1.20;1.10;;;14.30;99.90;;;;;;484474;245;28913;-69
2022/08/07 01:40:12;;;;;;;1.40;1.30;;;14.30;99.90;;;;;;485221;245;28336;-68
2022/08/07 01:42:13;;;;;;;1.33;1.23;;;14.20;99.90;;;;;;484545;245;29053;-68
2022/08/07 01:44:14;;;;;;;1.40;1.30;;;14.20;99.90;;;;;;485251;245;29171;-70
2022/08/07 01:46:16;;;;;;;1.20;1.20;;;14.20;99.90;;;;;;484517;245;28901;-67
2022/08/07 01:48:17;;;;;;;1.20;1.10;;;14.20;99.90;;;;;;485244;245;28480;-69
2022/08/07 01:50:18;;;;;;;1.50;1.40;;;14.20;99.90;;;;;;484575;245;28289;-68
2022/08/07 01:52:19;;;;;;;1.37;1.30;;;14.10;99.90;;;;;;485284;245;28337;-67
2022/08/07 01:54:21;;;;;;;1.33;1.10;;;14.20;99.90;;;;;;484556;245;28444;-71
2022/08/07 01:56:22;;;;;;;1.20;1.20;;;14.10;99.90;;;;;;485198;245;28445;-68
2022/08/07 01:58:23;;;;;;;1.20;1.20;;;14.10;99.90;;;;;;484538;245;28271;-69
2022/08/07 02:00:24;;;;;;;1.37;1.23;;;14.10;99.90;;;;;;485260;245;28357;-67
2022/08/07 02:02:26;;;;;;;1.90;1.33;;;14.10;99.90;;;;;;484516;245;28260;-68
2022/08/07 02:04:27;;;;;;;1.23;1.17;;;14.10;99.90;;;;;;485238;245;28814;-71
2022/08/07 02:06:28;;;;;;;1.50;1.40;;;14.10;99.90;;;;;;484465;245;28947;-68
2022/08/07 02:08:29;;;;;;;1.40;1.30;;;14.10;99.90;;;;;;485127;245;28881;-69
2022/08/07 02:10:31;;;;;;;4.30;1.30;;;14.10;99.90;;;;;;484489;245;28891;-67
2022/08/07 02:12:32;;;;;;;1.40;1.30;;;14.10;99.90;;;;;;485209;245;28750;-68
2022/08/07 02:14:33;;;;;;;1.20;1.20;;;14.10;99.90;;;;;;484546;245;28481;-71
2022/08/07 02:16:34;;;;;;;1.57;1.03;;;14.10;99.90;;;;;;485138;245;28422;-67
2022/08/07 02:18:36;;;;;;;1.20;1.10;;;14.10;99.90;;;;;;484503;245;28459;-69
2022/08/07 02:20:37;;;;;;;1.37;1.30;;;14.10;99.90;;;;;;485183;245;28227;-67
2022/08/07 02:22:38;;;;;;;2.70;1.40;;;14.10;99.90;;;;;;484471;245;28356;-68
2022/08/07 02:24:39;;;;;;;1.10;1.10;;;14.00;99.90;;;;;;485243;245;28489;-73
2022/08/07 02:26:41;;;;;;;2.17;1.10;;;13.90;99.90;;;;;;484481;245;28313;-67
2022/08/07 02:28:42;;;;;;;1.07;1.07;;;13.80;99.90;;;;;;485256;245;28456;-68
2022/08/07 02:30:43;;;;;;;1.90;1.10;;;13.60;99.90;;;;;;484536;245;28367;-67
2022/08/07 02:32:44;;;;;;;1.00;1.00;;;13.60;99.90;;;;;;485224;245;28890;-67
2022/08/07 02:34:46;;;;;;;1.20;1.10;;;13.60;99.90;;;;;;484552;245;28953;-71
2022/08/07 02:36:47;;;;;;;1.20;1.10;;;13.60;99.90;;;;;;485119;245;29165;-68
2022/08/07 02:38:48;;;;;;;1.10;1.10;;;13.60;99.90;;;;;;484507;245;28357;-68
2022/08/07 02:40:49;;;;;;;1.20;1.17;;;13.50;99.90;;;;;;485226;245;28321;-67
2022/08/07 02:42:51;;;;;;;1.13;1.13;;;13.50;99.90;;;;;;484537;245;28413;-68
2022/08/07 02:44:52;;;;;;;1.10;1.10;;;13.50;99.90;;;;;;485259;245;28341;-70
2022/08/07 02:46:53;;;;;;;1.17;1.03;;;13.50;99.90;;;;;;484470;245;28250;-67
2022/08/07 02:48:54;;;;;;;2.70;1.23;;;13.60;99.90;;;;;;485192;245;28889;-69
2022/08/07 02:50:56;;;;;;;1.07;1.07;;;13.50;99.90;;;;;;484519;245;28311;-67
2022/08/07 02:52:58;;;;;;;1.13;1.13;;;;;;;;;;485181;245;28262;-71
2022/08/07 02:54:59;;;;;;;1.20;1.20;;;13.50;99.90;;;;;;482946;246;26938;-67
2022/08/07 02:57:01;;;;;;;1.23;1.13;;;13.50;99.90;;;;;;488442;243;28284;-68
2022/08/07 02:59:02;;;;;;;1.40;1.30;;;13.60;99.90;;;;;;488497;242;28070;-68
2022/08/07 03:01:03;;;;;;;1.20;1.10;;;13.60;99.90;;;;;;488486;243;28538;-67
2022/08/07 03:03:06;;;;;;;1.00;1.00;;;;;;;;;;488524;243;28178;-67
2022/08/07 03:05:07;;;;;;;0.90;0.90;;;13.50;99.90;;;;;;488535;243;26633;-69
2022/08/07 03:07:08;;;;;;;1.10;1.10;;;13.50;99.90;;;;;;488424;243;28072;-67
2022/08/07 03:09:09;;;;;;;1.10;1.10;;;13.40;99.90;;;;;;488502;243;28078;-67
2022/08/07 03:11:12;;;;;;;1.20;1.10;;;;;;;;;;488508;243;28076;-67
2022/08/07 03:13:13;;;;;;;1.20;1.10;;;13.20;99.90;;;;;;488530;243;27024;-69
2022/08/07 03:15:14;;;;;;;1.10;1.10;;;13.20;99.90;;;;;;488517;243;28515;-67
2022/08/07 03:17:15;;;;;;;1.37;1.27;;;13.20;99.90;;;;;;488428;243;28211;-67
2022/08/07 03:19:17;;;;;;;1.47;1.10;;;13.20;99.90;;;;;;488528;243;28162;-71
2022/08/07 03:21:18;;;;;;;1.00;1.00;;;13.10;99.90;;;;;;488511;243;28190;-67
2022/08/07 03:23:19;;;;;;;1.20;1.20;;;13.00;99.90;;;;;;488501;243;28158;-68
2022/08/07 03:25:22;;;;;;;1.13;1.13;;;13.00;99.90;;;;;;488497;243;28320;-67
2022/08/07 03:27:22;;;;;;;1.20;1.10;;;13.00;99.90;;;;;;488283;243;28091;-67
2022/08/07 03:29:23;;;;;;;1.50;1.40;;;13.00;99.90;;;;;;488510;243;28565;-71
2022/08/07 03:31:25;;;;;;;1.13;1.13;;;13.10;99.90;;;;;;488508;243;28200;-67
2022/08/07 03:33:27;;;;;;;1.50;1.40;;;;;;;;;;488447;243;29308;-67
2022/08/07 03:35:28;;;;;;;1.17;1.13;;;13.20;99.90;;;;;;488254;243;26855;-68
2022/08/07 03:37:29;;;;;;;1.40;1.30;;;13.30;99.90;;;;;;488170;243;28086;-68
2022/08/07 03:39:30;;;;;;;1.03;1.03;;;13.30;99.90;;;;;;488344;243;28169;-67
2022/08/07 03:41:32;;;;;;;1.40;1.30;;;13.30;99.90;;;;;;488499;243;28773;-68
2022/08/07 03:43:33;;;;;;;1.27;1.20;;;13.30;99.90;;;;;;488513;243;28207;-68
2022/08/07 03:45:34;;;;;;;1.83;1.30;;;13.30;99.90;;;;;;488486;243;28247;-68
2022/08/07 03:47:35;;;;;;;1.43;1.10;;;13.30;99.90;;;;;;488387;243;29505;-71
2022/08/07 03:49:37;;;;;;;1.50;1.40;;;13.30;99.90;;;;;;488520;243;28970;-68
2022/08/07 03:51:38;;;;;;;1.43;1.33;;;13.30;99.90;;;;;;488510;243;28748;-68
2022/08/07 03:53:39;;;;;;;1.30;1.20;;;13.30;99.90;;;;;;488501;243;28261;-68
2022/08/07 03:55:40;;;;;;;1.40;1.30;;;13.30;99.90;;;;;;488483;243;28269;-67
2022/08/07 03:57:43;;;;;;;1.67;1.30;;;;;;;;;;488340;243;28333;-67
2022/08/07 03:59:44;;;;;;;1.83;1.23;;;13.40;99.90;;;;;;488493;243;28031;-69
2022/08/07 04:01:45;;;;;;;1.20;1.20;;;13.40;99.90;;;;;;488510;243;29229;-67
2022/08/07 04:03:47;;;;;;;1.37;1.20;;;13.40;99.90;;;;;;488499;243;28580;-68
2022/08/07 04:05:48;;;;;;;1.30;1.20;;;13.40;99.90;;;;;;488493;243;28275;-67
2022/08/07 04:07:50;;;;;;;1.20;1.20;;;;;;;;;;488265;243;28272;-69
2022/08/07 04:09:52;;;;;;;1.20;1.20;;;13.30;99.90;;;;;;488497;243;26504;-67
2022/08/07 04:11:53;;;;;;;1.40;1.30;;;13.30;99.90;;;;;;488476;243;29240;-67
2022/08/07 04:13:54;;;;;;;1.10;1.10;;;13.40;99.90;;;;;;488485;243;29329;-67
2022/08/07 04:15:55;;;;;;;1.40;1.30;;;13.40;99.90;;;;;;488503;243;28623;-68
2022/08/07 04:17:57;;;;;;;1.00;1.00;;;13.40;99.90;;;;;;488307;243;28136;-71
2022/08/07 04:19:58;;;;;;;1.00;1.00;;;13.30;99.90;;;;;;488503;243;28043;-67
2022/08/07 04:21:59;;;;;;;1.00;1.00;;;13.30;99.90;;;;;;488470;243;28163;-69
2022/08/07 04:24:00;;;;;;;1.23;1.13;;;13.30;99.90;;;;;;488480;243;28690;-67
2022/08/07 04:26:02;;;;;;;0.90;0.90;;;13.10;99.90;;;;;;488484;243;28288;-68
2022/08/07 04:28:03;;;;;;;1.10;1.10;;;13.00;99.90;;;;;;488500;243;28717;-68
2022/08/07 04:30:04;;;;;;;1.00;1.00;;;12.90;99.90;;;;;;488495;243;28108;-68
2022/08/07 04:32:07;;;;;;;1.07;1.07;;;;;;;;;;488495;243;28320;-66
2022/08/07 04:34:08;;;;;;;1.30;1.20;;;12.80;99.90;;;;;;488530;243;26925;-67
2022/08/07 04:36:09;;;;;;;1.10;1.10;;;12.80;99.90;;;;;;488266;243;28087;-71
2022/08/07 04:38:10;;;;;;;1.20;1.20;;;12.80;99.90;;;;;;488464;243;27912;-68
2022/08/07 04:40:12;;;;;;;1.20;1.20;;;12.90;99.90;;;;;;488489;243;28707;-69
2022/08/07 04:42:14;;;;;;;1.10;1.10;;;;;;;;;;488490;243;28288;-67
2022/08/07 04:44:15;;;;;;;1.90;1.20;;;12.80;99.90;;;;;;488515;243;26975;-70
2022/08/07 04:46:16;;;;;;;1.20;1.20;;;13.00;99.90;;;;;;488318;243;28120;-67
2022/08/07 04:48:18;;;;;;;1.37;1.27;;;13.10;99.90;;;;;;488500;243;28178;-68
2022/08/07 04:50:19;;;;;;;1.43;1.33;;;13.10;99.90;;;;;;488483;243;28235;-67
2022/08/07 04:52:21;;;;;;;1.53;1.40;;;13.00;99.90;;;;;;488532;243;28840;-67
2022/08/07 04:54:22;;;;;;;2.20;1.53;;;12.90;99.90;;;;;;488538;243;28735;-71
2022/08/07 04:56:23;;;;;;;1.30;1.30;;;12.90;99.90;;;;;;488500;243;28415;-68
2022/08/07 04:58:24;;;;;;;1.97;1.50;;;13.00;99.90;;;;;;488556;243;28314;-68
2022/08/07 05:00:25;;;;;;;1.40;1.30;;;13.00;99.90;;;;;;488530;243;28381;-67
2022/08/07 05:02:27;;;;;;;1.27;1.20;;;13.00;99.90;;;;;;488549;243;28182;-67
2022/08/07 05:04:29;;;;;;;1.30;1.30;;;;;;;;;;488528;243;28090;-67
2022/08/07 05:06:30;;;;;;;1.40;1.30;;;13.00;99.90;;;;;;488470;243;27329;-68
2022/08/07 05:08:32;;;;;;;1.10;1.10;;;13.20;99.90;;;;;;488457;243;28631;-66
2022/08/07 05:10:33;;;;;;;1.30;1.30;;;13.30;99.90;;;;;;488552;243;28072;-68
2022/08/07 05:12:34;;;;;;;1.50;1.40;;;13.40;99.90;;;;;;488544;243;28224;-70
2022/08/07 05:14:35;;;;;;;1.27;1.20;;;13.50;99.90;;;;;;488522;243;28126;-67
2022/08/07 05:16:37;;;;;;;1.20;1.20;;;13.60;99.90;;;;;;488444;243;28214;-68
2022/08/07 05:18:38;;;;;;;2.40;1.40;;;13.60;99.90;;;;;;488500;243;28168;-68
2022/08/07 05:20:39;;;;;;;1.40;1.30;;;13.70;99.90;;;;;;488528;243;28691;-67
2022/08/07 05:22:40;;;;;;;1.50;1.40;;;13.70;99.90;;;;;;488530;243;28421;-71
2022/08/07 05:24:42;;;;;;;1.60;1.50;;;13.70;99.90;;;;;;488538;243;28155;-67
2022/08/07 05:26:43;;;;;;;1.90;1.37;;;13.80;99.90;;;;;;488440;243;28783;-68
2022/08/07 05:28:44;;;;;;;1.50;1.50;;;13.80;99.90;;;;;;488492;243;28673;-67
2022/08/07 05:30:45;;;;;;;1.40;1.30;;;13.80;99.90;;;;;;488516;243;28723;-68
2022/08/07 05:32:47;;;;;;;3.23;1.50;;;13.90;99.90;;;;;;488521;243;28552;-71
2022/08/07 05:34:48;;;;;;;1.53;1.43;;;13.90;99.90;;;;;;488508;243;28149;-67
2022/08/07 05:36:49;;;;;;;3.47;1.33;;;13.90;99.90;;;;;;488343;243;28211;-68
2022/08/07 05:38:50;;;;;;;1.20;1.20;;;13.90;99.90;;;;;;488494;243;28177;-67
2022/08/07 05:40:52;;;;;;;1.30;1.30;;;14.00;99.90;;;;;;488547;243;28262;-68
2022/08/07 05:42:53;;;;;;;1.10;1.10;;;14.00;99.90;;;;;;488531;243;28397;-70
2022/08/07 05:44:54;;;;;;;1.50;1.40;;;14.00;99.90;;;;;;488505;243;28205;-67
2022/08/07 05:46:55;;;;;;;1.67;1.40;;;14.00;99.90;;;;;;488457;243;28286;-67
2022/08/07 05:48:57;;;;;;;1.50;1.40;;;14.00;99.90;;;;;;488488;243;28264;-67
2022/08/07 05:50:58;;;;;;;2.90;1.20;;;14.00;99.90;;;;;;488534;243;28149;-68
2022/08/07 05:52:59;;;;;;;1.30;1.20;;;14.10;99.90;;;;;;488430;243;28685;-70
2022/08/07 05:55:00;;;;;;;2.20;1.20;;;14.10;99.90;;;;;;488492;243;28903;-67
2022/08/07 05:57:02;;;;;;;1.40;1.30;;;14.20;99.90;;;;;;488394;243;28795;-69
2022/08/07 05:59:03;;;;;;;1.27;1.20;;;14.20;99.90;;;;;;488510;243;28140;-68
2022/08/07 06:01:04;;;;;;;1.40;1.40;;;14.20;99.90;;;;;;488506;243;28249;-69
2022/08/07 06:03:05;;;;;;;2.13;1.60;;;14.20;99.90;;;;;;488505;243;28490;-72
2022/08/07 06:05:07;;;;;;;1.33;1.23;;;14.30;99.90;;;;;;488522;243;28226;-67
2022/08/07 06:07:09;;;;;;;1.50;1.40;;;;;;;;;;488443;243;28460;-67
2022/08/07 06:09:10;;;;;;;1.20;1.20;;;14.30;99.90;;;;;;488535;243;26950;-67
2022/08/07 06:11:12;;;;;;;6.20;1.40;;;14.40;99.90;;;;;;488523;243;28197;-71
2022/08/07 06:13:13;;;;;;;1.80;1.70;;;14.40;99.90;;;;;;488511;243;28386;-68
2022/08/07 06:15:14;;;;;;;1.33;1.17;;;14.50;99.90;;;;;;488519;243;28721;-68
2022/08/07 06:17:15;;;;;;;1.40;1.40;;;14.50;99.90;;;;;;488425;243;28253;-67
2022/08/07 06:19:17;;;;;;;3.27;1.30;;;14.50;99.90;;;;;;488522;243;28193;-69
2022/08/07 06:21:18;;;;;;;1.30;1.20;;;14.60;99.90;;;;;;488535;243;28088;-69
2022/08/07 06:23:19;;;;;;;1.20;1.20;;;14.70;99.90;;;;;;488537;243;28271;-68
2022/08/07 06:25:20;;;;;;;1.20;1.20;;;14.70;99.90;;;;;;488510;243;28440;-69
2022/08/07 06:27:22;;;;;;;1.67;1.27;;;14.80;99.90;;;;;;488426;243;28310;-67
2022/08/07 06:29:23;;;;;;;2.13;1.53;;;14.80;99.90;;;;;;488516;243;29127;-67
2022/08/07 06:31:24;;;;;;;1.23;1.23;;;14.80;99.90;;;;;;488525;243;29210;-70
2022/08/07 06:33:25;;;;;;;1.20;1.20;;;14.90;99.90;;;;;;488493;243;28726;-67
2022/08/07 06:35:27;;;;;;;1.30;1.30;;;14.90;99.90;;;;;;488239;243;30222;-69
2022/08/07 06:37:28;;;;;;;1.57;1.47;;;15.00;99.90;;;;;;488439;243;28435;-69
2022/08/07 06:39:31;;;;;;;2.13;1.33;;;15.10;99.90;;;;;;488557;243;28765;-69
2022/08/07 06:41:30;;;;;;;1.37;1.17;;;15.10;99.90;;;;;;488420;243;28768;-72
2022/08/07 06:43:34;;;;;;;1.53;1.43;;;15.20;99.90;;;;;;488506;243;28766;-68
2022/08/07 06:45:33;;;;;;;1.83;1.20;;;15.20;99.90;;;;;;488251;243;28405;-69
2022/08/07 06:47:34;;;;;;;1.37;1.27;;;15.20;99.90;;;;;;488421;243;28715;-72
2022/08/07 06:49:35;;;;;;;1.90;1.47;;;15.30;99.90;;;;;;488516;243;28836;-68
2022/08/07 06:51:37;;;;;;;1.30;1.30;;;15.30;99.90;;;;;;488543;243;28716;-71
2022/08/07 06:53:38;;;;;;;2.77;1.30;;;15.40;99.90;;;;;;488509;243;29137;-68
2022/08/07 06:55:39;;;;;;;1.47;1.40;;;15.40;99.90;;;;;;488515;243;29290;-69
2022/08/07 06:57:40;;;;;;;1.20;1.10;;;15.60;99.90;;;;;;488452;243;29159;-67
2022/08/07 06:59:42;;;;;;;1.67;1.27;;;15.70;99.90;;;;;;488529;243;29233;-68
2022/08/07 07:01:43;;;;;;;1.20;1.20;;;15.80;99.90;;;;;;488477;242;28722;-72
2022/08/07 07:03:44;;;;;;;1.47;1.37;;;15.80;99.90;;;;;;488510;243;28718;-68
2022/08/07 07:05:46;;;;;;;1.30;1.20;;;15.80;99.90;;;;;;488503;243;28723;-69
2022/08/07 07:07:47;;;;;;;1.50;1.40;;;15.90;99.90;;;;;;488419;243;28675;-68
2022/08/07 07:09:48;;;;;;;1.40;1.30;;;16.00;99.90;;;;;;488454;243;28698;-67
2022/08/07 07:11:49;;;;;;;1.07;1.07;;;16.10;99.90;;;;;;488455;243;28747;-70
2022/08/07 07:13:50;;;;;;;1.40;1.30;;;16.10;99.90;;;;;;488520;243;28674;-68
2022/08/07 07:15:52;;;;;;;1.80;1.47;;;16.30;99.90;;;;;;488518;243;28837;-68
2022/08/07 07:17:53;;;;;;;1.50;1.40;;;16.30;99.90;;;;;;488438;243;29252;-68
2022/08/07 07:19:54;;;;;;;1.60;1.50;;;16.30;99.90;;;;;;488493;243;29226;-70
2022/08/07 07:21:55;;;;;;;1.23;1.13;;;16.30;99.90;;;;;;488553;243;28706;-71
2022/08/07 07:23:57;;;;;;;1.37;1.30;;;16.50;99.90;;;;;;488495;243;28702;-68
2022/08/07 07:25:58;;;;;;;1.43;1.33;;;16.40;99.90;;;;;;488516;243;28790;-69
2022/08/07 07:28:00;;;;;;;1.10;1.10;;;16.60;99.90;;;;;;488460;243;28670;-68
2022/08/07 07:30:00;;;;;;;1.30;1.20;;;16.70;99.90;;;;;;488471;243;28720;-68
2022/08/07 07:32:03;;;;;;;1.67;1.30;;;16.90;99.90;;;;;;488526;243;28802;-71
2022/08/07 07:34:04;;;;;;;2.60;1.33;;;17.00;99.90;;;;;;488514;243;28822;-69
2022/08/07 07:36:05;;;;;;;1.40;1.40;;;17.00;99.90;;;;;;488230;243;28787;-68
2022/08/07 07:38:07;;;;;;;1.60;1.50;;;16.90;99.90;;;;;;488508;243;29174;-69
2022/08/07 07:40:08;;;;;;;1.70;1.60;;;16.90;99.90;;;;;;488519;243;29278;-75
2022/08/07 07:42:09;;;;;;;2.43;1.70;;;17.00;99.90;;;;;;488522;243;29129;-68
2022/08/07 07:44:10;;;;;;;3.10;1.67;;;17.00;99.90;;;;;;488518;243;29363;-69
2022/08/07 07:46:12;;;;;;;1.73;1.60;;;17.00;99.90;;;;;;488491;243;28686;-67
2022/08/07 07:48:13;;;;;;;1.57;1.47;;;17.20;99.90;;;;;;488511;243;28765;-68
2022/08/07 07:50:15;;;;;;;2.00;1.50;;;17.40;99.90;;;;;;488532;243;28832;-71
2022/08/07 07:52:17;;;;;;;1.63;1.53;;;17.40;99.90;;;;;;488518;243;28740;-69
2022/08/07 07:54:18;;;;;;;1.77;1.50;;;17.40;99.90;;;;;;488510;243;28747;-68
2022/08/07 07:56:19;;;;;;;1.80;1.70;;;17.60;99.90;;;;;;488452;243;29180;-68
2022/08/07 07:58:20;;;;;;;1.97;1.87;;;17.70;99.90;;;;;;488555;243;29286;-72
2022/08/07 08:00:22;;;;;;;2.90;2.37;;;17.60;99.90;;;;;;488535;243;29249;-68
2022/08/07 08:02:23;;;;;;;2.50;1.73;;;17.60;99.90;;;;;;488535;243;29186;-68
2022/08/07 08:04:24;;;;;;;1.80;1.70;;;17.60;99.90;;;;;;488487;243;28721;-68
2022/08/07 08:06:25;;;;;;;2.97;2.07;;;17.60;99.90;;;;;;488475;243;28705;-69
2022/08/07 08:08:27;;;;;;;1.80;1.70;;;17.80;99.90;;;;;;488538;243;28716;-74
2022/08/07 08:10:28;;;;;;;1.77;1.67;;;17.80;99.90;;;;;;488544;243;28700;-68
2022/08/07 08:12:29;;;;;;;1.90;1.80;;;17.80;99.90;;;;;;488518;243;28720;-68
2022/08/07 08:14:30;;;;;;;2.20;2.00;;;18.00;99.90;;;;;;488516;243;28773;-68
2022/08/07 08:16:32;;;;;;;2.00;1.90;;;18.20;99.90;;;;;;488461;243;28788;-68
2022/08/07 08:18:33;;;;;;;2.10;2.00;;;18.30;99.90;;;;;;488552;243;28789;-72
2022/08/07 08:20:34;;;;;;;2.10;2.00;;;18.20;99.90;;;;;;488527;243;29306;-68
2022/08/07 08:27:15;;;;;;;4.20;2.37;;;18.40;99.90;;;;;;488456;243;28722;-69
2022/08/07 08:29:16;;;;;;;2.13;2.03;;;18.30;99.90;;;;;;488543;243;28715;-69
2022/08/07 08:31:17;;;;;;;2.20;2.00;;;18.30;99.90;;;;;;488553;243;28774;-68
2022/08/07 08:33:18;;;;;;;2.47;2.27;;;18.30;99.90;;;;;;488606;243;28745;-69
2022/08/07 08:35:20;;;;;;;3.50;2.20;;;18.60;99.90;;;;;;488404;243;28732;-71
2022/08/07 08:37:21;;;;;;;2.40;2.20;;;18.80;99.90;;;;;;488511;243;28683;-68
2022/08/07 08:39:23;;;;;;;2.10;2.00;;;18.80;99.90;;;;;;488558;243;28792;-69
2022/08/07 08:41:23;;;;;;;2.70;2.50;;;18.80;99.90;;;;;;488470;243;28666;-68
2022/08/07 08:43:25;;;;;;;4.93;2.70;;;18.90;99.90;;;;;;488572;243;28727;-68
2022/08/07 08:45:26;;;;;;;2.43;2.20;;;18.80;99.90;;;;;;488567;243;28780;-70
2022/08/07 08:47:27;;;;;;;2.20;2.10;;;18.80;99.90;;;;;;488509;243;28802;-68
2022/08/07 08:49:28;;;;;;;2.30;2.20;;;19.00;99.90;;;;;;488567;243;28724;-69
2022/08/07 08:51:30;;;;;;;2.43;2.23;;;19.20;99.90;;;;;;488547;243;30089;-68
2022/08/07 08:53:31;;;;;;;2.40;2.20;;;19.00;99.90;;;;;;488580;243;29140;-68
2022/08/07 08:55:32;;;;;;;2.60;2.40;;;18.90;99.90;;;;;;488563;243;29211;-70
2022/08/07 08:57:33;;;;;;;2.67;2.47;;;19.40;99.90;;;;;;488499;243;29114;-68
2022/08/07 08:59:39;;;;;;;2.50;2.30;;;19.30;99.90;;;;;;488532;243;28815;-70
2022/08/07 09:01:39;;;;;;;2.33;2.20;;;19.30;99.90;;;;;;488434;243;28733;-69
2022/08/07 09:03:40;;;;;;;2.40;2.20;;;19.50;99.90;;;;;;488513;243;28732;-68
2022/08/07 09:05:41;;;;;;;2.37;2.17;;;19.60;99.90;;;;;;488556;243;28665;-69
2022/08/07 09:07:42;;;;;;;3.73;3.20;;;19.50;99.90;;;;;;488486;243;28709;-71
2022/08/07 09:09:46;;;;;;;4.50;3.30;;;19.40;99.90;;;;;;488532;243;28685;-69
2022/08/07 09:11:45;;;;;;;3.90;3.20;;;19.60;99.90;;;;;;488286;243;28748;-69
2022/08/07 09:13:47;;;;;;;4.20;3.80;;;19.60;99.90;;;;;;488528;243;28691;-68
2022/08/07 09:15:48;;;;;;;4.93;3.30;;;19.80;99.90;;;;;;488516;243;28685;-69
2022/08/07 09:17:49;;;;;;;3.60;3.10;;;20.00;99.90;;;;;;488518;243;28882;-71
2022/08/07 09:19:50;;;;;;;2.80;2.60;;;19.90;99.90;;;;;;488594;243;28677;-69
2022/08/07 09:21:51;;;;;;;2.77;2.50;;;19.70;99.90;;;;;;488590;243;28718;-69
2022/08/07 09:23:53;;;;;;;6.73;4.03;;;19.60;99.90;;;;;;488582;243;29730;-72
2022/08/07 09:25:54;;;;;;;4.17;3.73;;;20.00;99.90;;;;;;488576;243;29157;-69
2022/08/07 09:27:55;;;;;;;3.37;2.50;;;20.20;99.90;;;;;;488510;243;29232;-72
2022/08/07 09:29:56;;;;;;;3.50;3.00;;;20.50;99.90;;;;;;488534;243;29229;-69
2022/08/07 09:31:58;;;;;;;2.60;2.40;;;20.50;99.90;;;;;;488523;243;28813;-69
2022/08/07 09:33:59;;;;;;;5.27;2.30;;;20.60;99.90;;;;;;488580;243;28726;-73
2022/08/07 09:36:01;;;;;;;3.67;2.43;;;20.50;99.90;;;;;;488411;243;28679;-69
2022/08/07 09:38:03;;;;;;;3.20;2.90;;;20.50;99.90;;;;;;488485;243;28722;-70
2022/08/07 09:40:04;;;;;;;2.67;2.47;;;20.60;99.90;;;;;;488446;243;28759;-69
2022/08/07 09:42:04;;;;;;;2.37;2.17;;;20.50;99.90;;;;;;488408;243;28817;-69
2022/08/07 09:44:06;;;;;;;2.30;2.20;;;20.60;99.90;;;;;;488527;243;28816;-73
2022/08/07 09:46:08;;;;;;;2.23;2.13;;;20.60;99.90;;;;;;488421;243;28709;-72
2022/08/07 09:48:09;;;;;;;2.60;2.10;;;20.70;99.90;;;;;;488537;243;28769;-68
2022/08/07 09:50:12;;;;;;;1.90;1.80;;;20.80;99.90;;;;;;488531;243;29203;-68
2022/08/07 09:52:11;;;;;;;1.93;1.83;;;20.60;99.90;;;;;;488278;243;28804;-69
2022/08/07 09:54:13;;;;;;;2.40;2.20;;;20.40;99.90;;;;;;488546;243;28749;-68
2022/08/07 09:56:14;;;;;;;2.20;2.10;;;20.20;99.90;;;;;;488475;243;28710;-72
2022/08/07 09:58:15;;;;;;;2.03;1.93;;;20.10;99.90;;;;;;488517;243;28703;-68
2022/08/07 10:00:16;;;;;;;1.90;1.80;;;20.40;99.90;;;;;;488512;243;28724;-70
2022/08/07 10:02:17;;;;;;;2.30;2.03;;;20.50;99.90;;;;;;488521;243;28805;-68
2022/08/07 10:04:19;;;;;;;2.10;2.00;;;20.70;99.90;;;;;;488535;243;28790;-69
2022/08/07 10:06:20;;;;;;;2.10;1.90;;;21.10;99.90;;;;;;488484;243;28792;-71
2022/08/07 10:08:21;;;;;;;1.97;1.87;;;21.30;99.90;;;;;;488518;243;28682;-68
2022/08/07 10:10:22;;;;;;;2.07;1.80;;;21.50;99.90;;;;;;488522;243;29279;-70
2022/08/07 10:12:24;;;;;;;2.10;2.00;;;21.80;99.90;;;;;;488475;243;29197;-68
2022/08/07 10:14:25;;;;;;;2.33;2.20;;;21.60;99.90;;;;;;488524;243;29276;-69
2022/08/07 10:16:26;;;;;;;2.70;2.00;;;21.40;99.90;;;;;;488446;243;28740;-71
2022/08/07 10:18:27;;;;;;;2.13;2.03;;;21.50;99.90;;;;;;488534;243;28778;-69
2022/08/07 10:20:29;;;;;;;2.33;2.20;;;21.70;99.90;;;;;;488525;243;28718;-70
2022/08/07 10:22:30;;;;;;;3.40;1.80;;;21.70;99.90;;;;;;488515;243;28754;-69
2022/08/07 10:24:31;;;;;;;2.23;2.13;;;21.60;99.90;;;;;;488505;243;28775;-69
2022/08/07 10:26:32;;;;;;;2.07;1.83;;;21.30;99.90;;;;;;487722;243;28729;-70
2022/08/07 10:28:34;;;;;;;2.43;2.00;;;21.30;99.90;;;;;;487105;243;29143;-68
2022/08/07 10:30:35;;;;;;;2.20;2.10;;;21.60;99.90;;;;;;487816;243;28730;-69
2022/08/07 10:32:36;;;;;;;2.20;2.00;;;21.40;99.90;;;;;;488419;243;28673;-70
2022/08/07 10:34:37;;;;;;;5.23;1.87;;;21.50;99.90;;;;;;488540;243;29149;-70
2022/08/07 10:36:39;;;;;;;2.20;2.10;;;21.50;99.90;;;;;;488311;243;29207;-73
2022/08/07 10:38:40;;;;;;;3.40;2.10;;;21.50;99.90;;;;;;488507;243;29158;-69